sensor_id;sensor_type;location;lat;lon;timestamp;temperature;humidity
25108;DHT22;13090;53.422;7.670;2023-04-21T00:03:13;10.50;82.80
25108;DHT22;13090;53.422;7.670;2023-04-21T00:08:17;10.50;82.80
25108;DHT22;13090;53.422;7.670;2023-04-21T00:13:20;10.50;83.20
25108;DHT22;13090;53.422;7.670;2023-04-21T00:18:23;10.50;83.60
25108;DHT22;13090;53.422;7.670;2023-04-21T00:23:25;10.50;83.00
25108;DHT22;13090;53.422;7.670;2023-04-21T00:28:28;10.50;83.10
25108;DHT22;13090;53.422;7.670;2023-04-21T00:33:31;10.50;83.40
25108;DHT22;13090;53.422;7.670;2023-04-21T00:38:34;10.50;83.50
25108;DHT22;13090;53.422;7.670;2023-04-21T00:43:36;10.40;83.00
25108;DHT22;13090;53.422;7.670;2023-04-21T00:48:39;10.40;82.70
25108;DHT22;13090;53.422;7.670;2023-04-21T00:53:41;10.40;82.50
25108;DHT22;13090;53.422;7.670;2023-04-21T00:58:45;10.30;82.20
25108;DHT22;13090;53.422;7.670;2023-04-21T01:03:49;10.20;82.10
25108;DHT22;13090;53.422;7.670;2023-04-21T01:08:52;10.10;82.30
25108;DHT22;13090;53.422;7.670;2023-04-21T01:13:55;10.10;82.80
25108;DHT22;13090;53.422;7.670;2023-04-21T01:18:58;10.10;82.60
25108;DHT22;13090;53.422;7.670;2023-04-21T01:24:02;10.00;84.10
25108;DHT22;13090;53.422;7.670;2023-04-21T01:29:04;10.00;83.50
25108;DHT22;13090;53.422;7.670;2023-04-21T01:34:06;10.00;83.40
25108;DHT22;13090;53.422;7.670;2023-04-21T01:39:10;9.90;83.80
25108;DHT22;13090;53.422;7.670;2023-04-21T01:44:12;9.90;83.40
25108;DHT22;13090;53.422;7.670;2023-04-21T01:49:14;9.80;84.10
25108;DHT22;13090;53.422;7.670;2023-04-21T01:54:18;9.80;84.30
25108;DHT22;13090;53.422;7.670;2023-04-21T01:59:20;9.80;84.50
25108;DHT22;13090;53.422;7.670;2023-04-21T02:04:22;9.80;85.70
25108;DHT22;13090;53.422;7.670;2023-04-21T02:09:26;9.80;84.70
25108;DHT22;13090;53.422;7.670;2023-04-21T02:14:28;9.70;85.50
25108;DHT22;13090;53.422;7.670;2023-04-21T02:19:30;9.80;85.60
25108;DHT22;13090;53.422;7.670;2023-04-21T02:24:34;9.80;85.70
25108;DHT22;13090;53.422;7.670;2023-04-21T02:29:36;9.70;85.40
25108;DHT22;13090;53.422;7.670;2023-04-21T02:34:38;9.70;86.90
25108;DHT22;13090;53.422;7.670;2023-04-21T02:39:42;9.80;86.10
25108;DHT22;13090;53.422;7.670;2023-04-21T02:44:44;9.70;86.80
25108;DHT22;13090;53.422;7.670;2023-04-21T02:49:46;9.80;85.80
25108;DHT22;13090;53.422;7.670;2023-04-21T02:54:49;9.70;86.30
25108;DHT22;13090;53.422;7.670;2023-04-21T02:59:52;9.70;86.20
25108;DHT22;13090;53.422;7.670;2023-04-21T03:04:54;9.70;86.30
25108;DHT22;13090;53.422;7.670;2023-04-21T03:09:57;9.70;87.00
25108;DHT22;13090;53.422;7.670;2023-04-21T03:14:59;9.70;87.40
25108;DHT22;13090;53.422;7.670;2023-04-21T03:20:02;9.70;86.90
25108;DHT22;13090;53.422;7.670;2023-04-21T03:25:06;9.80;86.90
25108;DHT22;13090;53.422;7.670;2023-04-21T03:30:09;9.70;86.90
25108;DHT22;13090;53.422;7.670;2023-04-21T03:35:11;9.70;86.70
25108;DHT22;13090;53.422;7.670;2023-04-21T03:40:15;9.70;86.80
25108;DHT22;13090;53.422;7.670;2023-04-21T03:45:17;9.80;86.60
25108;DHT22;13090;53.422;7.670;2023-04-21T03:50:19;9.70;87.40
25108;DHT22;13090;53.422;7.670;2023-04-21T03:55:23;9.70;87.60
25108;DHT22;13090;53.422;7.670;2023-04-21T04:00:25;9.70;87.60
25108;DHT22;13090;53.422;7.670;2023-04-21T04:05:27;9.60;87.60
25108;DHT22;13090;53.422;7.670;2023-04-21T04:10:31;9.60;87.30
25108;DHT22;13090;53.422;7.670;2023-04-21T04:15:33;9.60;88.20
25108;DHT22;13090;53.422;7.670;2023-04-21T04:20:36;9.60;88.30
25108;DHT22;13090;53.422;7.670;2023-04-21T04:25:39;9.60;88.20
25108;DHT22;13090;53.422;7.670;2023-04-21T04:30:41;9.60;87.60
25108;DHT22;13090;53.422;7.670;2023-04-21T04:35:44;9.60;88.50
25108;DHT22;13090;53.422;7.670;2023-04-21T04:40:53;9.60;88.70
25108;DHT22;13090;53.422;7.670;2023-04-21T04:45:56;9.60;89.10
25108;DHT22;13090;53.422;7.670;2023-04-21T04:50:58;9.70;88.80
25108;DHT22;13090;53.422;7.670;2023-04-21T04:56:01;9.80;88.90
25108;DHT22;13090;53.422;7.670;2023-04-21T05:01:10;9.90;88.70
25108;DHT22;13090;53.422;7.670;2023-04-21T05:06:12;10.00;88.50
25108;DHT22;13090;53.422;7.670;2023-04-21T05:11:16;10.30;88.00
25108;DHT22;13090;53.422;7.670;2023-04-21T05:16:18;10.40;87.20
25108;DHT22;13090;53.422;7.670;2023-04-21T05:21:24;10.70;86.50
25108;DHT22;13090;53.422;7.670;2023-04-21T05:26:29;11.00;85.70
25108;DHT22;13090;53.422;7.670;2023-04-21T05:31:31;11.30;84.60
25108;DHT22;13090;53.422;7.670;2023-04-21T05:36:33;11.60;83.90
25108;DHT22;13090;53.422;7.670;2023-04-21T05:41:36;11.90;82.80
25108;DHT22;13090;53.422;7.670;2023-04-21T05:46:39;12.10;83.10
25108;DHT22;13090;53.422;7.670;2023-04-21T05:51:41;12.40;82.10
25108;DHT22;13090;53.422;7.670;2023-04-21T05:56:45;12.80;81.10
25108;DHT22;13090;53.422;7.670;2023-04-21T06:01:47;13.10;78.60
25108;DHT22;13090;53.422;7.670;2023-04-21T06:06:49;13.40;78.40
25108;DHT22;13090;53.422;7.670;2023-04-21T06:11:53;13.70;76.70
25108;DHT22;13090;53.422;7.670;2023-04-21T06:16:55;14.00;76.00
25108;DHT22;13090;53.422;7.670;2023-04-21T06:21:59;14.20;75.60
25108;DHT22;13090;53.422;7.670;2023-04-21T06:27:02;14.40;74.00
25108;DHT22;13090;53.422;7.670;2023-04-21T06:32:05;14.60;74.20
25108;DHT22;13090;53.422;7.670;2023-04-21T06:37:07;14.80;73.10
25108;DHT22;13090;53.422;7.670;2023-04-21T06:42:11;15.00;73.50
25108;DHT22;13090;53.422;7.670;2023-04-21T06:47:13;15.40;72.00
25108;DHT22;13090;53.422;7.670;2023-04-21T06:52:16;15.70;71.70
25108;DHT22;13090;53.422;7.670;2023-04-21T06:57:23;15.90;70.20
25108;DHT22;13090;53.422;7.670;2023-04-21T07:02:25;16.00;67.60
25108;DHT22;13090;53.422;7.670;2023-04-21T07:07:28;16.00;68.90
25108;DHT22;13090;53.422;7.670;2023-04-21T07:12:31;16.20;68.30
25108;DHT22;13090;53.422;7.670;2023-04-21T07:17:33;16.40;67.60
25108;DHT22;13090;53.422;7.670;2023-04-21T07:22:36;16.70;68.40
25108;DHT22;13090;53.422;7.670;2023-04-21T07:27:39;17.00;65.90
25108;DHT22;13090;53.422;7.670;2023-04-21T07:32:41;17.20;64.40
25108;DHT22;13090;53.422;7.670;2023-04-21T07:37:44;17.30;66.40
25108;DHT22;13090;53.422;7.670;2023-04-21T07:42:47;17.60;64.30
25108;DHT22;13090;53.422;7.670;2023-04-21T07:47:50;18.00;62.80
25108;DHT22;13090;53.422;7.670;2023-04-21T07:52:52;18.30;62.60
25108;DHT22;13090;53.422;7.670;2023-04-21T07:57:56;18.40;62.50
25108;DHT22;13090;53.422;7.670;2023-04-21T08:02:58;18.70;62.70
25108;DHT22;13090;53.422;7.670;2023-04-21T08:08:01;19.00;61.50
25108;DHT22;13090;53.422;7.670;2023-04-21T08:13:05;19.40;61.70
25108;DHT22;13090;53.422;7.670;2023-04-21T08:18:07;19.70;58.90
25108;DHT22;13090;53.422;7.670;2023-04-21T08:23:10;19.80;58.30
25108;DHT22;13090;53.422;7.670;2023-04-21T08:28:14;20.00;58.60
25108;DHT22;13090;53.422;7.670;2023-04-21T08:33:16;20.10;57.40
25108;DHT22;13090;53.422;7.670;2023-04-21T08:38:18;20.10;57.90
25108;DHT22;13090;53.422;7.670;2023-04-21T08:43:22;20.30;58.00
25108;DHT22;13090;53.422;7.670;2023-04-21T08:48:25;20.60;59.20
25108;DHT22;13090;53.422;7.670;2023-04-21T08:53:29;21.00;57.70
25108;DHT22;13090;53.422;7.670;2023-04-21T08:58:32;21.30;57.00
25108;DHT22;13090;53.422;7.670;2023-04-21T09:03:34;21.50;55.10
25108;DHT22;13090;53.422;7.670;2023-04-21T09:08:41;21.50;52.60
25108;DHT22;13090;53.422;7.670;2023-04-21T09:13:46;21.30;53.90
25108;DHT22;13090;53.422;7.670;2023-04-21T09:18:48;21.30;55.20
25108;DHT22;13090;53.422;7.670;2023-04-21T09:23:52;21.30;54.70
25108;DHT22;13090;53.422;7.670;2023-04-21T09:28:55;21.20;56.10
25108;DHT22;13090;53.422;7.670;2023-04-21T09:33:58;21.30;55.60
25108;DHT22;13090;53.422;7.670;2023-04-21T09:39:04;21.30;55.30
25108;DHT22;13090;53.422;7.670;2023-04-21T09:44:12;21.60;55.60
25108;DHT22;13090;53.422;7.670;2023-04-21T09:49:16;21.90;52.00
25108;DHT22;13090;53.422;7.670;2023-04-21T09:54:20;21.90;53.20
25108;DHT22;13090;53.422;7.670;2023-04-21T09:59:31;22.00;53.60
25108;DHT22;13090;53.422;7.670;2023-04-21T10:04:35;22.40;52.90
25108;DHT22;13090;53.422;7.670;2023-04-21T10:09:44;22.70;52.40
25108;DHT22;13090;53.422;7.670;2023-04-21T10:14:51;23.00;51.50
25108;DHT22;13090;53.422;7.670;2023-04-21T10:19:54;23.00;50.00
25108;DHT22;13090;53.422;7.670;2023-04-21T10:24:59;23.10;50.70
25108;DHT22;13090;53.422;7.670;2023-04-21T10:30:17;23.20;49.30
25108;DHT22;13090;53.422;7.670;2023-04-21T10:35:21;23.30;49.50
25108;DHT22;13090;53.422;7.670;2023-04-21T10:40:33;23.40;48.50
25108;DHT22;13090;53.422;7.670;2023-04-21T10:45:46;23.40;48.30
25108;DHT22;13090;53.422;7.670;2023-04-21T10:50:49;23.40;48.90
25108;DHT22;13090;53.422;7.670;2023-04-21T10:55:52;23.40;48.30
25108;DHT22;13090;53.422;7.670;2023-04-21T11:00:56;23.20;47.60
25108;DHT22;13090;53.422;7.670;2023-04-21T11:05:58;23.20;47.50
25108;DHT22;13090;53.422;7.670;2023-04-21T11:11:00;23.30;48.20
25108;DHT22;13090;53.422;7.670;2023-04-21T11:16:05;23.50;47.90
25108;DHT22;13090;53.422;7.670;2023-04-21T11:21:12;23.50;47.30
25108;DHT22;13090;53.422;7.670;2023-04-21T11:26:15;23.50;45.70
25108;DHT22;13090;53.422;7.670;2023-04-21T11:31:18;23.40;47.20
25108;DHT22;13090;53.422;7.670;2023-04-21T11:36:21;23.50;46.80
25108;DHT22;13090;53.422;7.670;2023-04-21T11:41:23;23.60;47.60
25108;DHT22;13090;53.422;7.670;2023-04-21T11:46:28;23.70;47.30
25108;DHT22;13090;53.422;7.670;2023-04-21T11:51:34;23.70;46.70
25108;DHT22;13090;53.422;7.670;2023-04-21T11:56:38;23.90;46.20
25108;DHT22;13090;53.422;7.670;2023-04-21T12:01:46;24.00;44.80
25108;DHT22;13090;53.422;7.670;2023-04-21T12:06:57;24.00;45.10
25108;DHT22;13090;53.422;7.670;2023-04-21T12:11:59;23.80;45.20
25108;DHT22;13090;53.422;7.670;2023-04-21T12:17:06;23.80;44.20
25108;DHT22;13090;53.422;7.670;2023-04-21T12:22:09;23.50;43.90
25108;DHT22;13090;53.422;7.670;2023-04-21T12:27:12;23.20;45.60
25108;DHT22;13090;53.422;7.670;2023-04-21T12:32:16;23.00;46.00
25108;DHT22;13090;53.422;7.670;2023-04-21T12:37:19;22.90;45.00
25108;DHT22;13090;53.422;7.670;2023-04-21T12:42:22;22.80;45.30
25108;DHT22;13090;53.422;7.670;2023-04-21T12:47:25;22.80;45.30
25108;DHT22;13090;53.422;7.670;2023-04-21T12:52:27;22.60;43.30
25108;DHT22;13090;53.422;7.670;2023-04-21T12:57:30;22.40;45.00
25108;DHT22;13090;53.422;7.670;2023-04-21T13:02:34;22.30;42.50
25108;DHT22;13090;53.422;7.670;2023-04-21T13:07:36;22.20;41.30
25108;DHT22;13090;53.422;7.670;2023-04-21T13:12:39;22.20;41.90
25108;DHT22;13090;53.422;7.670;2023-04-21T13:17:42;22.00;40.30
25108;DHT22;13090;53.422;7.670;2023-04-21T13:22:45;21.90;41.90
25108;DHT22;13090;53.422;7.670;2023-04-21T13:27:47;21.80;41.70
25108;DHT22;13090;53.422;7.670;2023-04-21T13:32:50;21.80;42.10
25108;DHT22;13090;53.422;7.670;2023-04-21T13:37:53;21.90;43.30
25108;DHT22;13090;53.422;7.670;2023-04-21T13:42:55;21.90;43.60
25108;DHT22;13090;53.422;7.670;2023-04-21T13:47:59;21.90;42.90
25108;DHT22;13090;53.422;7.670;2023-04-21T13:53:01;22.10;42.90
25108;DHT22;13090;53.422;7.670;2023-04-21T13:58:03;22.20;43.50
25108;DHT22;13090;53.422;7.670;2023-04-21T14:03:08;22.20;43.60
25108;DHT22;13090;53.422;7.670;2023-04-21T14:08:11;22.20;43.10
25108;DHT22;13090;53.422;7.670;2023-04-21T14:13:13;22.30;42.20
25108;DHT22;13090;53.422;7.670;2023-04-21T14:18:35;22.20;41.40
25108;DHT22;13090;53.422;7.670;2023-04-21T14:23:37;22.30;42.40
25108;DHT22;13090;53.422;7.670;2023-04-21T14:28:40;22.30;43.70
25108;DHT22;13090;53.422;7.670;2023-04-21T14:33:44;22.40;43.80
25108;DHT22;13090;53.422;7.670;2023-04-21T14:38:46;22.40;43.60
25108;DHT22;13090;53.422;7.670;2023-04-21T14:43:48;22.40;43.70
25108;DHT22;13090;53.422;7.670;2023-04-21T14:48:52;22.20;44.70
25108;DHT22;13090;53.422;7.670;2023-04-21T14:53:55;22.30;44.30
25108;DHT22;13090;53.422;7.670;2023-04-21T14:58:57;22.20;41.60
25108;DHT22;13090;53.422;7.670;2023-04-21T15:04:01;22.10;41.20
25108;DHT22;13090;53.422;7.670;2023-04-21T15:09:03;22.20;45.10
25108;DHT22;13090;53.422;7.670;2023-04-21T15:14:06;22.30;39.90
25108;DHT22;13090;53.422;7.670;2023-04-21T15:19:09;22.40;39.10
25108;DHT22;13090;53.422;7.670;2023-04-21T15:24:11;22.30;38.50
25108;DHT22;13090;53.422;7.670;2023-04-21T15:29:14;22.30;39.80
25108;DHT22;13090;53.422;7.670;2023-04-21T15:34:17;22.40;39.30
25108;DHT22;13090;53.422;7.670;2023-04-21T15:39:19;22.40;38.50
25108;DHT22;13090;53.422;7.670;2023-04-21T15:44:21;22.40;37.00
25108;DHT22;13090;53.422;7.670;2023-04-21T15:49:25;22.30;37.40
25108;DHT22;13090;53.422;7.670;2023-04-21T15:54:27;22.10;36.50
25108;DHT22;13090;53.422;7.670;2023-04-21T15:59:30;22.00;36.60
25108;DHT22;13090;53.422;7.670;2023-04-21T16:04:33;22.00;36.20
25108;DHT22;13090;53.422;7.670;2023-04-21T16:09:36;22.00;35.90
25108;DHT22;13090;53.422;7.670;2023-04-21T16:14:39;22.00;35.80
25108;DHT22;13090;53.422;7.670;2023-04-21T16:19:59;21.90;36.10
25108;DHT22;13090;53.422;7.670;2023-04-21T16:25:01;21.90;37.40
25108;DHT22;13090;53.422;7.670;2023-04-21T16:30:05;21.80;36.20
25108;DHT22;13090;53.422;7.670;2023-04-21T16:35:10;21.60;37.30
25108;DHT22;13090;53.422;7.670;2023-04-21T16:40:13;21.70;38.00
25108;DHT22;13090;53.422;7.670;2023-04-21T16:45:15;21.60;37.30
25108;DHT22;13090;53.422;7.670;2023-04-21T16:50:19;21.60;37.70
25108;DHT22;13090;53.422;7.670;2023-04-21T16:55:21;21.50;37.20
25108;DHT22;13090;53.422;7.670;2023-04-21T17:00:23;21.40;37.80
25108;DHT22;13090;53.422;7.670;2023-04-21T17:05:27;21.40;38.50
25108;DHT22;13090;53.422;7.670;2023-04-21T17:10:29;21.30;38.90
25108;DHT22;13090;53.422;7.670;2023-04-21T17:15:32;21.30;38.90
25108;DHT22;13090;53.422;7.670;2023-04-21T17:20:35;21.30;40.10
25108;DHT22;13090;53.422;7.670;2023-04-21T17:25:38;21.20;39.20
25108;DHT22;13090;53.422;7.670;2023-04-21T17:30:40;21.10;39.40
25108;DHT22;13090;53.422;7.670;2023-04-21T17:35:44;21.10;39.90
25108;DHT22;13090;53.422;7.670;2023-04-21T17:41:04;21.00;40.70
25108;DHT22;13090;53.422;7.670;2023-04-21T17:46:06;20.90;40.40
25108;DHT22;13090;53.422;7.670;2023-04-21T17:51:10;20.90;40.90
25108;DHT22;13090;53.422;7.670;2023-04-21T17:56:12;20.80;41.00
25108;DHT22;13090;53.422;7.670;2023-04-21T18:01:14;20.70;41.00
25108;DHT22;13090;53.422;7.670;2023-04-21T18:06:18;20.60;41.30
25108;DHT22;13090;53.422;7.670;2023-04-21T18:11:20;20.40;41.40
25108;DHT22;13090;53.422;7.670;2023-04-21T18:16:22;20.30;42.00
25108;DHT22;13090;53.422;7.670;2023-04-21T18:21:26;20.20;42.20
25108;DHT22;13090;53.422;7.670;2023-04-21T18:26:28;20.10;42.50
25108;DHT22;13090;53.422;7.670;2023-04-21T18:31:30;20.10;43.10
25108;DHT22;13090;53.422;7.670;2023-04-21T18:36:34;20.00;45.80
25108;DHT22;13090;53.422;7.670;2023-04-21T18:41:39;19.60;47.60
25108;DHT22;13090;53.422;7.670;2023-04-21T18:46:41;19.30;49.60
25108;DHT22;13090;53.422;7.670;2023-04-21T18:51:45;19.00;51.00
25108;DHT22;13090;53.422;7.670;2023-04-21T18:56:49;18.70;52.50
25108;DHT22;13090;53.422;7.670;2023-04-21T19:01:52;18.40;53.30
25108;DHT22;13090;53.422;7.670;2023-04-21T19:06:55;18.20;54.00
25108;DHT22;13090;53.422;7.670;2023-04-21T19:11:58;18.10;54.40
25108;DHT22;13090;53.422;7.670;2023-04-21T19:17:00;17.90;55.00
25108;DHT22;13090;53.422;7.670;2023-04-21T19:22:03;17.80;55.00
25108;DHT22;13090;53.422;7.670;2023-04-21T19:27:05;17.60;56.00
25108;DHT22;13090;53.422;7.670;2023-04-21T19:32:08;17.50;56.30
25108;DHT22;13090;53.422;7.670;2023-04-21T19:37:14;17.30;56.90
25108;DHT22;13090;53.422;7.670;2023-04-21T19:42:16;17.30;57.40
25108;DHT22;13090;53.422;7.670;2023-04-21T19:47:19;17.10;57.80
25108;DHT22;13090;53.422;7.670;2023-04-21T19:52:47;17.00;59.10
25108;DHT22;13090;53.422;7.670;2023-04-21T19:57:49;16.90;59.80
25108;DHT22;13090;53.422;7.670;2023-04-21T20:02:51;16.70;59.80
25108;DHT22;13090;53.422;7.670;2023-04-21T20:07:56;16.60;60.50
25108;DHT22;13090;53.422;7.670;2023-04-21T20:13:00;16.50;60.80
25108;DHT22;13090;53.422;7.670;2023-04-21T20:18:02;16.40;61.10
25108;DHT22;13090;53.422;7.670;2023-04-21T20:23:06;16.30;62.10
25108;DHT22;13090;53.422;7.670;2023-04-21T20:28:09;16.20;62.20
25108;DHT22;13090;53.422;7.670;2023-04-21T20:33:11;16.10;63.30
25108;DHT22;13090;53.422;7.670;2023-04-21T20:38:15;16.10;62.90
25108;DHT22;13090;53.422;7.670;2023-04-21T20:43:17;16.00;63.30
25108;DHT22;13090;53.422;7.670;2023-04-21T20:48:20;15.90;63.00
25108;DHT22;13090;53.422;7.670;2023-04-21T20:53:23;15.80;63.40
25108;DHT22;13090;53.422;7.670;2023-04-21T20:58:26;15.70;64.80
25108;DHT22;13090;53.422;7.670;2023-04-21T21:03:28;15.60;64.80
25108;DHT22;13090;53.422;7.670;2023-04-21T21:08:33;15.40;65.40
25108;DHT22;13090;53.422;7.670;2023-04-21T21:13:36;15.30;65.60
25108;DHT22;13090;53.422;7.670;2023-04-21T21:18:38;15.20;65.50
25108;DHT22;13090;53.422;7.670;2023-04-21T21:23:42;15.10;66.20
25108;DHT22;13090;53.422;7.670;2023-04-21T21:28:44;15.00;66.70
25108;DHT22;13090;53.422;7.670;2023-04-21T21:33:47;14.90;67.70
25108;DHT22;13090;53.422;7.670;2023-04-21T21:38:51;14.80;68.10
25108;DHT22;13090;53.422;7.670;2023-04-21T21:43:53;14.70;68.30
25108;DHT22;13090;53.422;7.670;2023-04-21T21:48:55;14.70;68.50
25108;DHT22;13090;53.422;7.670;2023-04-21T21:54:08;14.60;67.80
25108;DHT22;13090;53.422;7.670;2023-04-21T21:59:10;14.50;68.40
25108;DHT22;13090;53.422;7.670;2023-04-21T22:04:13;14.50;69.00
25108;DHT22;13090;53.422;7.670;2023-04-21T22:09:18;14.40;69.90
25108;DHT22;13090;53.422;7.670;2023-04-21T22:14:21;14.40;70.00
25108;DHT22;13090;53.422;7.670;2023-04-21T22:19:25;14.30;71.30
25108;DHT22;13090;53.422;7.670;2023-04-21T22:24:29;14.20;71.80
25108;DHT22;13090;53.422;7.670;2023-04-21T22:29:31;14.20;72.00
25108;DHT22;13090;53.422;7.670;2023-04-21T22:34:34;14.10;72.20
25108;DHT22;13090;53.422;7.670;2023-04-21T22:39:38;14.00;72.70
25108;DHT22;13090;53.422;7.670;2023-04-21T22:44:41;14.00;72.70
25108;DHT22;13090;53.422;7.670;2023-04-21T22:49:43;14.00;72.10
25108;DHT22;13090;53.422;7.670;2023-04-21T22:54:47;13.90;72.70
25108;DHT22;13090;53.422;7.670;2023-04-21T22:59:50;13.90;72.30
25108;DHT22;13090;53.422;7.670;2023-04-21T23:04:53;13.90;72.40
25108;DHT22;13090;53.422;7.670;2023-04-21T23:09:57;13.80;72.20
25108;DHT22;13090;53.422;7.670;2023-04-21T23:14:59;13.80;72.50
25108;DHT22;13090;53.422;7.670;2023-04-21T23:20:02;13.80;72.80
25108;DHT22;13090;53.422;7.670;2023-04-21T23:25:07;13.80;73.10
25108;DHT22;13090;53.422;7.670;2023-04-21T23:30:11;13.80;72.50
25108;DHT22;13090;53.422;7.670;2023-04-21T23:35:13;13.80;73.30
25108;DHT22;13090;53.422;7.670;2023-04-21T23:40:17;13.70;73.50
25108;DHT22;13090;53.422;7.670;2023-04-21T23:45:20;13.70;72.70
25108;DHT22;13090;53.422;7.670;2023-04-21T23:50:29;13.80;72.80
25108;DHT22;13090;53.422;7.670;2023-04-21T23:55:40;13.80;72.50
